sensor_id;sensor_type;location;lat;lon;timestamp;P1;durP1;ratioP1;P2;durP2;ratioP2
61640;SDS011;62201;49.966;8.342;2023-07-08T00:01:53;8.52;;;6.20;;
61640;SDS011;62201;49.966;8.342;2023-07-08T00:04:19;9.43;;;5.47;;
61640;SDS011;62201;49.966;8.342;2023-07-08T00:06:44;9.52;;;5.40;;
61640;SDS011;62201;49.966;8.342;2023-07-08T00:09:10;9.68;;;5.78;;
61640;SDS011;62201;49.966;8.342;2023-07-08T00:11:38;8.48;;;6.15;;
61640;SDS011;62201;49.966;8.342;2023-07-08T00:14:04;6.20;;;5.13;;
61640;SDS011;62201;49.966;8.342;2023-07-08T00:16:29;7.97;;;5.70;;
61640;SDS011;62201;49.966;8.342;2023-07-08T00:18:55;9.18;;;5.38;;
61640;SDS011;62201;49.966;8.342;2023-07-08T00:21:20;8.27;;;5.60;;
61640;SDS011;62201;49.966;8.342;2023-07-08T00:23:46;8.07;;;5.68;;
61640;SDS011;62201;49.966;8.342;2023-07-08T00:26:26;9.38;;;5.40;;
61640;SDS011;62201;49.966;8.342;2023-07-08T00:28:53;7.15;;;5.10;;
61640;SDS011;62201;49.966;8.342;2023-07-08T00:31:19;6.32;;;5.07;;
61640;SDS011;62201;49.966;8.342;2023-07-08T00:33:52;11.85;;;5.28;;
61640;SDS011;62201;49.966;8.342;2023-07-08T00:36:21;7.57;;;5.38;;
61640;SDS011;62201;49.966;8.342;2023-07-08T00:38:48;6.90;;;5.30;;
61640;SDS011;62201;49.966;8.342;2023-07-08T00:41:21;7.57;;;5.15;;
61640;SDS011;62201;49.966;8.342;2023-07-08T00:44:03;9.70;;;5.10;;
61640;SDS011;62201;49.966;8.342;2023-07-08T00:51:50;10.98;;;5.32;;
61640;SDS011;62201;49.966;8.342;2023-07-08T00:54:16;8.35;;;4.95;;
61640;SDS011;62201;49.966;8.342;2023-07-08T00:56:56;8.85;;;5.13;;
61640;SDS011;62201;49.966;8.342;2023-07-08T00:59:29;13.38;;;5.55;;
61640;SDS011;62201;49.966;8.342;2023-07-08T01:01:57;11.38;;;5.30;;
61640;SDS011;62201;49.966;8.342;2023-07-08T01:04:29;8.10;;;4.88;;
61640;SDS011;62201;49.966;8.342;2023-07-08T01:06:59;9.52;;;5.30;;
61640;SDS011;62201;49.966;8.342;2023-07-08T01:09:31;8.02;;;4.63;;
61640;SDS011;62201;49.966;8.342;2023-07-08T01:12:21;10.47;;;4.70;;
61640;SDS011;62201;49.966;8.342;2023-07-08T01:14:50;8.18;;;4.78;;
61640;SDS011;62201;49.966;8.342;2023-07-08T01:17:19;8.93;;;4.57;;
61640;SDS011;62201;49.966;8.342;2023-07-08T01:19:47;8.82;;;4.53;;
61640;SDS011;62201;49.966;8.342;2023-07-08T01:22:13;7.80;;;4.75;;
61640;SDS011;62201;49.966;8.342;2023-07-08T01:24:40;6.70;;;4.95;;
61640;SDS011;62201;49.966;8.342;2023-07-08T01:27:08;10.77;;;4.95;;
61640;SDS011;62201;49.966;8.342;2023-07-08T01:29:36;7.30;;;5.07;;
61640;SDS011;62201;49.966;8.342;2023-07-08T01:32:02;7.35;;;4.60;;
61640;SDS011;62201;49.966;8.342;2023-07-08T01:34:34;10.15;;;5.15;;
61640;SDS011;62201;49.966;8.342;2023-07-08T01:37:02;8.52;;;5.20;;
61640;SDS011;62201;49.966;8.342;2023-07-08T01:39:31;8.90;;;4.80;;
61640;SDS011;62201;49.966;8.342;2023-07-08T01:41:57;6.18;;;4.70;;
61640;SDS011;62201;49.966;8.342;2023-07-08T01:46:51;7.45;;;5.00;;
61640;SDS011;62201;49.966;8.342;2023-07-08T01:49:19;8.85;;;4.88;;
61640;SDS011;62201;49.966;8.342;2023-07-08T01:51:46;11.02;;;5.35;;
61640;SDS011;62201;49.966;8.342;2023-07-08T01:54:13;6.82;;;5.03;;
61640;SDS011;62201;49.966;8.342;2023-07-08T01:56:39;8.10;;;4.90;;
61640;SDS011;62201;49.966;8.342;2023-07-08T01:59:04;10.20;;;5.22;;
61640;SDS011;62201;49.966;8.342;2023-07-08T02:01:30;8.13;;;5.10;;
61640;SDS011;62201;49.966;8.342;2023-07-08T02:03:55;7.72;;;5.28;;
61640;SDS011;62201;49.966;8.342;2023-07-08T02:06:20;9.52;;;4.80;;
61640;SDS011;62201;49.966;8.342;2023-07-08T02:08:46;7.72;;;5.13;;
61640;SDS011;62201;49.966;8.342;2023-07-08T02:11:11;6.03;;;4.72;;
61640;SDS011;62201;49.966;8.342;2023-07-08T02:13:36;9.80;;;5.10;;
61640;SDS011;62201;49.966;8.342;2023-07-08T02:16:02;7.57;;;4.88;;
61640;SDS011;62201;49.966;8.342;2023-07-08T02:18:27;7.30;;;4.78;;
61640;SDS011;62201;49.966;8.342;2023-07-08T02:20:57;7.60;;;5.07;;
61640;SDS011;62201;49.966;8.342;2023-07-08T02:23:22;14.35;;;5.07;;
61640;SDS011;62201;49.966;8.342;2023-07-08T02:25:53;10.43;;;4.97;;
61640;SDS011;62201;49.966;8.342;2023-07-08T02:28:19;9.35;;;4.90;;
61640;SDS011;62201;49.966;8.342;2023-07-08T02:30:45;10.95;;;4.97;;
61640;SDS011;62201;49.966;8.342;2023-07-08T02:33:13;9.55;;;4.78;;
61640;SDS011;62201;49.966;8.342;2023-07-08T02:35:42;7.93;;;4.78;;
61640;SDS011;62201;49.966;8.342;2023-07-08T02:38:08;6.45;;;4.90;;
61640;SDS011;62201;49.966;8.342;2023-07-08T02:40:33;8.25;;;4.68;;
61640;SDS011;62201;49.966;8.342;2023-07-08T02:42:58;6.15;;;4.88;;
61640;SDS011;62201;49.966;8.342;2023-07-08T02:45:24;6.90;;;4.90;;
61640;SDS011;62201;49.966;8.342;2023-07-08T02:47:49;7.90;;;5.03;;
61640;SDS011;62201;49.966;8.342;2023-07-08T02:50:15;6.78;;;4.47;;
61640;SDS011;62201;49.966;8.342;2023-07-08T02:52:42;7.57;;;4.53;;
61640;SDS011;62201;49.966;8.342;2023-07-08T02:55:07;6.70;;;4.85;;
61640;SDS011;62201;49.966;8.342;2023-07-08T02:57:33;10.13;;;4.93;;
61640;SDS011;62201;49.966;8.342;2023-07-08T02:59:58;7.60;;;5.25;;
61640;SDS011;62201;49.966;8.342;2023-07-08T03:02:24;6.88;;;4.90;;
61640;SDS011;62201;49.966;8.342;2023-07-08T03:04:51;10.20;;;4.53;;
61640;SDS011;62201;49.966;8.342;2023-07-08T03:07:19;8.60;;;4.72;;
61640;SDS011;62201;49.966;8.342;2023-07-08T03:09:44;7.28;;;4.57;;
61640;SDS011;62201;49.966;8.342;2023-07-08T03:12:10;6.47;;;4.63;;
61640;SDS011;62201;49.966;8.342;2023-07-08T03:14:36;8.40;;;4.88;;
61640;SDS011;62201;49.966;8.342;2023-07-08T03:17:02;8.80;;;4.78;;
61640;SDS011;62201;49.966;8.342;2023-07-08T03:19:28;5.22;;;4.35;;
61640;SDS011;62201;49.966;8.342;2023-07-08T03:21:54;9.07;;;4.60;;
61640;SDS011;62201;49.966;8.342;2023-07-08T03:24:20;6.22;;;4.82;;
61640;SDS011;62201;49.966;8.342;2023-07-08T03:26:45;8.25;;;4.82;;
61640;SDS011;62201;49.966;8.342;2023-07-08T03:29:13;7.40;;;4.43;;
61640;SDS011;62201;49.966;8.342;2023-07-08T03:31:40;5.63;;;4.57;;
61640;SDS011;62201;49.966;8.342;2023-07-08T03:34:07;7.20;;;4.78;;
61640;SDS011;62201;49.966;8.342;2023-07-08T03:36:42;8.07;;;4.45;;
61640;SDS011;62201;49.966;8.342;2023-07-08T03:39:16;6.88;;;4.47;;
61640;SDS011;62201;49.966;8.342;2023-07-08T03:41:42;9.63;;;4.65;;
61640;SDS011;62201;49.966;8.342;2023-07-08T03:44:07;9.05;;;4.63;;
61640;SDS011;62201;49.966;8.342;2023-07-08T03:46:33;7.80;;;4.40;;
61640;SDS011;62201;49.966;8.342;2023-07-08T03:48:58;8.25;;;4.78;;
61640;SDS011;62201;49.966;8.342;2023-07-08T03:51:25;8.40;;;4.90;;
61640;SDS011;62201;49.966;8.342;2023-07-08T03:53:54;6.32;;;4.63;;
61640;SDS011;62201;49.966;8.342;2023-07-08T03:56:20;14.45;;;4.93;;
61640;SDS011;62201;49.966;8.342;2023-07-08T03:58:45;6.32;;;4.50;;
61640;SDS011;62201;49.966;8.342;2023-07-08T04:01:15;8.75;;;4.55;;
61640;SDS011;62201;49.966;8.342;2023-07-08T04:03:42;10.02;;;5.00;;
61640;SDS011;62201;49.966;8.342;2023-07-08T04:06:07;6.60;;;5.00;;
61640;SDS011;62201;49.966;8.342;2023-07-08T04:08:33;6.47;;;4.70;;
61640;SDS011;62201;49.966;8.342;2023-07-08T04:10:58;9.70;;;4.70;;
61640;SDS011;62201;49.966;8.342;2023-07-08T04:13:24;6.90;;;4.43;;
61640;SDS011;62201;49.966;8.342;2023-07-08T04:15:51;8.07;;;4.70;;
61640;SDS011;62201;49.966;8.342;2023-07-08T04:18:21;7.35;;;5.22;;
61640;SDS011;62201;49.966;8.342;2023-07-08T04:20:46;10.32;;;5.10;;
61640;SDS011;62201;49.966;8.342;2023-07-08T04:23:17;5.57;;;4.40;;
61640;SDS011;62201;49.966;8.342;2023-07-08T04:25:43;7.38;;;4.47;;
61640;SDS011;62201;49.966;8.342;2023-07-08T04:28:08;6.72;;;4.70;;
61640;SDS011;62201;49.966;8.342;2023-07-08T04:30:34;5.70;;;4.72;;
61640;SDS011;62201;49.966;8.342;2023-07-08T04:33:05;9.00;;;4.90;;
61640;SDS011;62201;49.966;8.342;2023-07-08T04:35:33;9.70;;;4.88;;
61640;SDS011;62201;49.966;8.342;2023-07-08T04:37:58;9.98;;;5.13;;
61640;SDS011;62201;49.966;8.342;2023-07-08T04:40:25;8.30;;;5.05;;
61640;SDS011;62201;49.966;8.342;2023-07-08T04:42:50;6.40;;;4.97;;
61640;SDS011;62201;49.966;8.342;2023-07-08T04:45:16;10.65;;;4.60;;
61640;SDS011;62201;49.966;8.342;2023-07-08T04:47:43;10.05;;;4.57;;
61640;SDS011;62201;49.966;8.342;2023-07-08T04:50:11;9.40;;;4.80;;
61640;SDS011;62201;49.966;8.342;2023-07-08T04:52:37;8.48;;;5.13;;
61640;SDS011;62201;49.966;8.342;2023-07-08T04:55:03;9.07;;;4.47;;
61640;SDS011;62201;49.966;8.342;2023-07-08T04:57:28;7.50;;;4.63;;
61640;SDS011;62201;49.966;8.342;2023-07-08T04:59:54;9.30;;;4.97;;
61640;SDS011;62201;49.966;8.342;2023-07-08T05:02:19;6.47;;;4.32;;
61640;SDS011;62201;49.966;8.342;2023-07-08T05:04:45;10.35;;;4.60;;
61640;SDS011;62201;49.966;8.342;2023-07-08T05:07:10;8.13;;;5.00;;
61640;SDS011;62201;49.966;8.342;2023-07-08T05:09:35;9.05;;;4.80;;
61640;SDS011;62201;49.966;8.342;2023-07-08T05:12:01;8.55;;;4.68;;
61640;SDS011;62201;49.966;8.342;2023-07-08T05:14:26;8.63;;;4.88;;
61640;SDS011;62201;49.966;8.342;2023-07-08T05:16:52;6.18;;;4.80;;
61640;SDS011;62201;49.966;8.342;2023-07-08T05:19:17;9.68;;;4.78;;
61640;SDS011;62201;49.966;8.342;2023-07-08T05:21:43;8.88;;;5.07;;
61640;SDS011;62201;49.966;8.342;2023-07-08T05:24:10;8.25;;;4.80;;
61640;SDS011;62201;49.966;8.342;2023-07-08T05:26:35;8.68;;;4.85;;
61640;SDS011;62201;49.966;8.342;2023-07-08T05:29:01;6.25;;;4.63;;
61640;SDS011;62201;49.966;8.342;2023-07-08T05:31:27;5.80;;;4.53;;
61640;SDS011;62201;49.966;8.342;2023-07-08T05:33:53;7.93;;;4.90;;
61640;SDS011;62201;49.966;8.342;2023-07-08T05:36:18;7.50;;;4.53;;
61640;SDS011;62201;49.966;8.342;2023-07-08T05:38:43;5.00;;;4.15;;
61640;SDS011;62201;49.966;8.342;2023-07-08T05:41:09;8.98;;;5.10;;
61640;SDS011;62201;49.966;8.342;2023-07-08T05:43:34;6.63;;;4.10;;
61640;SDS011;62201;49.966;8.342;2023-07-08T05:46:00;8.32;;;4.20;;
61640;SDS011;62201;49.966;8.342;2023-07-08T05:48:26;5.80;;;4.53;;
61640;SDS011;62201;49.966;8.342;2023-07-08T05:50:52;6.63;;;4.20;;
61640;SDS011;62201;49.966;8.342;2023-07-08T05:53:18;8.57;;;4.72;;
61640;SDS011;62201;49.966;8.342;2023-07-08T05:55:45;11.55;;;4.85;;
61640;SDS011;62201;49.966;8.342;2023-07-08T05:58:10;8.60;;;4.43;;
61640;SDS011;62201;49.966;8.342;2023-07-08T06:00:36;7.78;;;4.40;;
61640;SDS011;62201;49.966;8.342;2023-07-08T06:03:02;7.43;;;4.55;;
61640;SDS011;62201;49.966;8.342;2023-07-08T06:05:27;7.95;;;4.32;;
61640;SDS011;62201;49.966;8.342;2023-07-08T06:07:52;7.20;;;4.45;;
61640;SDS011;62201;49.966;8.342;2023-07-08T06:10:18;9.80;;;4.70;;
61640;SDS011;62201;49.966;8.342;2023-07-08T06:12:43;6.72;;;4.60;;
61640;SDS011;62201;49.966;8.342;2023-07-08T06:15:09;6.38;;;4.68;;
61640;SDS011;62201;49.966;8.342;2023-07-08T06:17:35;7.68;;;4.53;;
61640;SDS011;62201;49.966;8.342;2023-07-08T06:20:00;5.55;;;4.28;;
61640;SDS011;62201;49.966;8.342;2023-07-08T06:22:27;6.72;;;4.78;;
61640;SDS011;62201;49.966;8.342;2023-07-08T06:24:52;8.68;;;4.28;;
61640;SDS011;62201;49.966;8.342;2023-07-08T06:27:17;7.75;;;4.40;;
61640;SDS011;62201;49.966;8.342;2023-07-08T06:29:43;8.45;;;4.60;;
61640;SDS011;62201;49.966;8.342;2023-07-08T06:32:08;8.63;;;4.63;;
61640;SDS011;62201;49.966;8.342;2023-07-08T06:34:33;12.52;;;4.80;;
61640;SDS011;62201;49.966;8.342;2023-07-08T06:36:59;11.35;;;5.35;;
61640;SDS011;62201;49.966;8.342;2023-07-08T06:39:24;7.40;;;4.35;;
61640;SDS011;62201;49.966;8.342;2023-07-08T06:41:50;6.43;;;4.18;;
61640;SDS011;62201;49.966;8.342;2023-07-08T06:44:15;7.05;;;4.30;;
61640;SDS011;62201;49.966;8.342;2023-07-08T06:46:41;7.15;;;4.30;;
61640;SDS011;62201;49.966;8.342;2023-07-08T06:49:06;7.63;;;4.53;;
61640;SDS011;62201;49.966;8.342;2023-07-08T06:51:36;6.82;;;4.13;;
61640;SDS011;62201;49.966;8.342;2023-07-08T06:54:02;9.13;;;4.80;;
61640;SDS011;62201;49.966;8.342;2023-07-08T06:56:30;7.38;;;4.65;;
61640;SDS011;62201;49.966;8.342;2023-07-08T06:58:56;6.97;;;4.60;;
61640;SDS011;62201;49.966;8.342;2023-07-08T07:01:21;11.20;;;4.70;;
61640;SDS011;62201;49.966;8.342;2023-07-08T07:03:46;8.65;;;4.63;;
61640;SDS011;62201;49.966;8.342;2023-07-08T07:06:12;5.82;;;4.45;;
61640;SDS011;62201;49.966;8.342;2023-07-08T07:08:37;8.90;;;4.38;;
61640;SDS011;62201;49.966;8.342;2023-07-08T07:11:03;7.47;;;4.40;;
61640;SDS011;62201;49.966;8.342;2023-07-08T07:13:28;6.00;;;4.43;;
61640;SDS011;62201;49.966;8.342;2023-07-08T07:15:54;7.15;;;4.43;;
61640;SDS011;62201;49.966;8.342;2023-07-08T07:18:19;6.53;;;4.45;;
61640;SDS011;62201;49.966;8.342;2023-07-08T07:20:49;7.25;;;4.40;;
61640;SDS011;62201;49.966;8.342;2023-07-08T07:23:15;7.75;;;4.60;;
61640;SDS011;62201;49.966;8.342;2023-07-08T07:25:42;6.80;;;4.15;;
61640;SDS011;62201;49.966;8.342;2023-07-08T07:28:07;6.65;;;4.35;;
61640;SDS011;62201;49.966;8.342;2023-07-08T07:30:32;10.48;;;4.65;;
61640;SDS011;62201;49.966;8.342;2023-07-08T07:32:59;4.70;;;4.20;;
61640;SDS011;62201;49.966;8.342;2023-07-08T07:35:25;7.95;;;4.47;;
61640;SDS011;62201;49.966;8.342;2023-07-08T07:37:50;11.52;;;4.20;;
61640;SDS011;62201;49.966;8.342;2023-07-08T07:40:16;5.88;;;4.15;;
61640;SDS011;62201;49.966;8.342;2023-07-08T07:42:42;7.57;;;4.10;;
61640;SDS011;62201;49.966;8.342;2023-07-08T07:45:09;5.35;;;4.05;;
61640;SDS011;62201;49.966;8.342;2023-07-08T07:47:35;8.38;;;4.15;;
61640;SDS011;62201;49.966;8.342;2023-07-08T07:50:01;5.07;;;4.05;;
61640;SDS011;62201;49.966;8.342;2023-07-08T07:52:28;10.18;;;4.20;;
61640;SDS011;62201;49.966;8.342;2023-07-08T07:54:54;10.95;;;4.25;;
61640;SDS011;62201;49.966;8.342;2023-07-08T07:57:20;6.68;;;4.32;;
61640;SDS011;62201;49.966;8.342;2023-07-08T07:59:46;10.50;;;4.35;;
61640;SDS011;62201;49.966;8.342;2023-07-08T08:02:13;7.22;;;4.40;;
61640;SDS011;62201;49.966;8.342;2023-07-08T08:04:39;5.93;;;4.13;;
61640;SDS011;62201;49.966;8.342;2023-07-08T08:07:05;6.90;;;4.35;;
61640;SDS011;62201;49.966;8.342;2023-07-08T08:09:30;7.70;;;4.20;;
61640;SDS011;62201;49.966;8.342;2023-07-08T08:11:55;7.47;;;4.40;;
61640;SDS011;62201;49.966;8.342;2023-07-08T08:14:21;6.22;;;4.43;;
61640;SDS011;62201;49.966;8.342;2023-07-08T08:16:47;8.07;;;4.78;;
61640;SDS011;62201;49.966;8.342;2023-07-08T08:19:12;8.18;;;4.28;;
61640;SDS011;62201;49.966;8.342;2023-07-08T08:21:37;7.95;;;4.38;;
61640;SDS011;62201;49.966;8.342;2023-07-08T08:24:03;7.35;;;4.68;;
61640;SDS011;62201;49.966;8.342;2023-07-08T08:26:29;5.20;;;4.25;;
61640;SDS011;62201;49.966;8.342;2023-07-08T08:28:55;8.45;;;4.43;;
61640;SDS011;62201;49.966;8.342;2023-07-08T08:31:20;5.78;;;4.15;;
61640;SDS011;62201;49.966;8.342;2023-07-08T08:33:46;8.98;;;4.13;;
61640;SDS011;62201;49.966;8.342;2023-07-08T08:36:11;6.28;;;4.05;;
61640;SDS011;62201;49.966;8.342;2023-07-08T08:38:37;9.02;;;4.65;;
61640;SDS011;62201;49.966;8.342;2023-07-08T08:41:03;10.95;;;4.63;;
61640;SDS011;62201;49.966;8.342;2023-07-08T08:43:39;8.55;;;4.93;;
61640;SDS011;62201;49.966;8.342;2023-07-08T08:46:09;8.55;;;4.85;;
61640;SDS011;62201;49.966;8.342;2023-07-08T08:48:37;8.13;;;4.75;;
61640;SDS011;62201;49.966;8.342;2023-07-08T08:51:10;8.95;;;4.85;;
61640;SDS011;62201;49.966;8.342;2023-07-08T08:53:39;5.97;;;4.93;;
61640;SDS011;62201;49.966;8.342;2023-07-08T08:56:09;8.05;;;4.95;;
61640;SDS011;62201;49.966;8.342;2023-07-08T09:01:50;6.53;;;4.57;;
61640;SDS011;62201;49.966;8.342;2023-07-08T09:04:19;7.57;;;5.15;;
61640;SDS011;62201;49.966;8.342;2023-07-08T09:07:06;6.70;;;4.85;;
61640;SDS011;62201;49.966;8.342;2023-07-08T09:10:04;6.70;;;5.25;;
61640;SDS011;62201;49.966;8.342;2023-07-08T09:12:38;9.65;;;5.03;;
61640;SDS011;62201;49.966;8.342;2023-07-08T09:15:11;6.15;;;5.35;;
61640;SDS011;62201;49.966;8.342;2023-07-08T09:17:39;10.10;;;5.40;;
61640;SDS011;62201;49.966;8.342;2023-07-08T09:22:48;10.43;;;5.50;;
61640;SDS011;62201;49.966;8.342;2023-07-08T09:25:37;7.95;;;5.18;;
61640;SDS011;62201;49.966;8.342;2023-07-08T09:28:09;5.50;;;4.88;;
61640;SDS011;62201;49.966;8.342;2023-07-08T09:30:38;10.30;;;5.60;;
61640;SDS011;62201;49.966;8.342;2023-07-08T09:33:04;7.63;;;5.38;;
61640;SDS011;62201;49.966;8.342;2023-07-08T09:35:43;7.82;;;6.00;;
61640;SDS011;62201;49.966;8.342;2023-07-08T09:38:13;7.05;;;5.40;;
61640;SDS011;62201;49.966;8.342;2023-07-08T09:40:43;6.18;;;5.10;;
61640;SDS011;62201;49.966;8.342;2023-07-08T09:43:16;8.80;;;5.63;;
61640;SDS011;62201;49.966;8.342;2023-07-08T09:45:55;6.28;;;5.25;;
61640;SDS011;62201;49.966;8.342;2023-07-08T09:48:24;10.15;;;5.25;;
61640;SDS011;62201;49.966;8.342;2023-07-08T09:50:52;8.27;;;5.70;;
61640;SDS011;62201;49.966;8.342;2023-07-08T09:53:19;19.48;;;6.15;;
61640;SDS011;62201;49.966;8.342;2023-07-08T09:55:45;10.25;;;5.10;;
61640;SDS011;62201;49.966;8.342;2023-07-08T09:58:13;8.18;;;5.63;;
61640;SDS011;62201;49.966;8.342;2023-07-08T10:00:43;6.55;;;5.25;;
61640;SDS011;62201;49.966;8.342;2023-07-08T10:03:17;6.18;;;5.30;;
61640;SDS011;62201;49.966;8.342;2023-07-08T10:05:46;8.88;;;5.05;;
61640;SDS011;62201;49.966;8.342;2023-07-08T10:08:17;6.65;;;5.65;;
61640;SDS011;62201;49.966;8.342;2023-07-08T10:13:17;7.40;;;5.40;;
61640;SDS011;62201;49.966;8.342;2023-07-08T10:15:44;10.82;;;5.03;;
61640;SDS011;62201;49.966;8.342;2023-07-08T10:18:14;8.20;;;5.13;;
61640;SDS011;62201;49.966;8.342;2023-07-08T10:21:15;8.93;;;4.95;;
61640;SDS011;62201;49.966;8.342;2023-07-08T10:26:12;7.13;;;5.40;;
61640;SDS011;62201;49.966;8.342;2023-07-08T10:37:11;7.82;;;4.78;;
61640;SDS011;62201;49.966;8.342;2023-07-08T10:45:23;7.10;;;5.15;;
61640;SDS011;62201;49.966;8.342;2023-07-08T10:48:03;8.32;;;5.20;;
61640;SDS011;62201;49.966;8.342;2023-07-08T11:09:46;8.52;;;4.82;;
61640;SDS011;62201;49.966;8.342;2023-07-08T11:15:23;9.63;;;5.27;;
61640;SDS011;62201;49.966;8.342;2023-07-08T11:23:02;10.13;;;5.28;;
61640;SDS011;62201;49.966;8.342;2023-07-08T11:26:00;9.13;;;5.20;;
61640;SDS011;62201;49.966;8.342;2023-07-08T11:28:41;6.90;;;4.95;;
61640;SDS011;62201;49.966;8.342;2023-07-08T11:31:06;7.70;;;5.40;;
61640;SDS011;62201;49.966;8.342;2023-07-08T11:33:32;9.35;;;5.28;;
61640;SDS011;62201;49.966;8.342;2023-07-08T11:35:59;8.75;;;4.70;;
61640;SDS011;62201;49.966;8.342;2023-07-08T11:38:28;7.78;;;4.85;;
61640;SDS011;62201;49.966;8.342;2023-07-08T11:41:03;12.98;;;5.18;;
61640;SDS011;62201;49.966;8.342;2023-07-08T11:44:10;9.18;;;4.80;;
61640;SDS011;62201;49.966;8.342;2023-07-08T11:46:30;5.93;;;4.82;;
61640;SDS011;62201;49.966;8.342;2023-07-08T11:49:00;9.10;;;4.97;;
61640;SDS011;62201;49.966;8.342;2023-07-08T11:51:39;8.25;;;5.40;;
61640;SDS011;62201;49.966;8.342;2023-07-08T11:54:14;8.65;;;4.88;;
61640;SDS011;62201;49.966;8.342;2023-07-08T11:56:59;9.38;;;5.30;;
61640;SDS011;62201;49.966;8.342;2023-07-08T11:59:30;10.93;;;5.65;;
61640;SDS011;62201;49.966;8.342;2023-07-08T12:02:02;10.00;;;5.22;;
61640;SDS011;62201;49.966;8.342;2023-07-08T12:07:40;9.93;;;4.70;;
61640;SDS011;62201;49.966;8.342;2023-07-08T12:10:31;5.78;;;4.78;;
61640;SDS011;62201;49.966;8.342;2023-07-08T12:13:00;14.38;;;5.13;;
61640;SDS011;62201;49.966;8.342;2023-07-08T12:15:27;10.35;;;4.93;;
61640;SDS011;62201;49.966;8.342;2023-07-08T12:23:18;7.53;;;4.20;;
61640;SDS011;62201;49.966;8.342;2023-07-08T12:25:45;6.47;;;4.25;;
61640;SDS011;62201;49.966;8.342;2023-07-08T12:28:11;9.27;;;4.53;;
61640;SDS011;62201;49.966;8.342;2023-07-08T12:30:37;9.80;;;4.55;;
61640;SDS011;62201;49.966;8.342;2023-07-08T12:33:03;6.32;;;4.40;;
61640;SDS011;62201;49.966;8.342;2023-07-08T12:35:36;7.53;;;5.07;;
61640;SDS011;62201;49.966;8.342;2023-07-08T12:38:03;9.05;;;4.40;;
61640;SDS011;62201;49.966;8.342;2023-07-08T12:40:38;8.00;;;4.63;;
61640;SDS011;62201;49.966;8.342;2023-07-08T12:43:07;12.13;;;4.95;;
61640;SDS011;62201;49.966;8.342;2023-07-08T12:45:34;9.35;;;4.72;;
61640;SDS011;62201;49.966;8.342;2023-07-08T12:48:01;8.75;;;4.30;;
61640;SDS011;62201;49.966;8.342;2023-07-08T12:50:26;10.77;;;4.72;;
61640;SDS011;62201;49.966;8.342;2023-07-08T12:52:52;7.47;;;4.70;;
61640;SDS011;62201;49.966;8.342;2023-07-08T12:55:17;7.25;;;4.35;;
61640;SDS011;62201;49.966;8.342;2023-07-08T12:57:47;7.00;;;4.25;;
61640;SDS011;62201;49.966;8.342;2023-07-08T13:00:25;6.97;;;4.40;;
61640;SDS011;62201;49.966;8.342;2023-07-08T13:03:37;8.02;;;4.60;;
61640;SDS011;62201;49.966;8.342;2023-07-08T13:05:47;12.02;;;4.63;;
61640;SDS011;62201;49.966;8.342;2023-07-08T13:08:14;8.75;;;4.85;;
61640;SDS011;62201;49.966;8.342;2023-07-08T13:10:42;17.20;;;5.15;;
61640;SDS011;62201;49.966;8.342;2023-07-08T13:13:11;8.02;;;4.68;;
61640;SDS011;62201;49.966;8.342;2023-07-08T13:15:42;12.30;;;4.90;;
61640;SDS011;62201;49.966;8.342;2023-07-08T13:18:12;9.02;;;4.85;;
61640;SDS011;62201;49.966;8.342;2023-07-08T13:20:40;14.20;;;5.25;;
61640;SDS011;62201;49.966;8.342;2023-07-08T13:23:07;9.63;;;5.10;;
61640;SDS011;62201;49.966;8.342;2023-07-08T13:25:34;8.38;;;4.60;;
61640;SDS011;62201;49.966;8.342;2023-07-08T13:28:25;10.02;;;4.28;;
61640;SDS011;62201;49.966;8.342;2023-07-08T13:30:52;8.32;;;5.20;;
61640;SDS011;62201;49.966;8.342;2023-07-08T13:33:18;7.18;;;4.47;;
61640;SDS011;62201;49.966;8.342;2023-07-08T13:35:44;12.90;;;4.53;;
61640;SDS011;62201;49.966;8.342;2023-07-08T13:38:16;9.38;;;4.50;;
61640;SDS011;62201;49.966;8.342;2023-07-08T13:40:45;8.30;;;4.43;;
61640;SDS011;62201;49.966;8.342;2023-07-08T13:43:13;8.05;;;4.38;;
61640;SDS011;62201;49.966;8.342;2023-07-08T13:45:42;11.05;;;4.60;;
61640;SDS011;62201;49.966;8.342;2023-07-08T13:48:14;8.90;;;4.35;;
61640;SDS011;62201;49.966;8.342;2023-07-08T13:50:53;8.10;;;4.25;;
61640;SDS011;62201;49.966;8.342;2023-07-08T13:53:32;12.95;;;4.85;;
61640;SDS011;62201;49.966;8.342;2023-07-08T13:56:03;12.00;;;4.75;;
61640;SDS011;62201;49.966;8.342;2023-07-08T13:58:33;9.23;;;4.38;;
61640;SDS011;62201;49.966;8.342;2023-07-08T14:00:59;7.93;;;4.40;;
61640;SDS011;62201;49.966;8.342;2023-07-08T14:03:24;10.10;;;4.65;;
61640;SDS011;62201;49.966;8.342;2023-07-08T14:05:50;10.10;;;4.60;;
61640;SDS011;62201;49.966;8.342;2023-07-08T14:08:16;10.50;;;4.32;;
61640;SDS011;62201;49.966;8.342;2023-07-08T14:10:43;7.28;;;4.18;;
61640;SDS011;62201;49.966;8.342;2023-07-08T14:13:11;8.45;;;3.85;;
61640;SDS011;62201;49.966;8.342;2023-07-08T14:15:37;7.38;;;4.10;;
61640;SDS011;62201;49.966;8.342;2023-07-08T14:18:03;8.82;;;4.30;;
61640;SDS011;62201;49.966;8.342;2023-07-08T14:20:29;8.90;;;4.43;;
61640;SDS011;62201;49.966;8.342;2023-07-08T14:22:55;7.85;;;4.10;;
61640;SDS011;62201;49.966;8.342;2023-07-08T14:25:20;8.23;;;4.15;;
61640;SDS011;62201;49.966;8.342;2023-07-08T14:27:48;16.42;;;4.55;;
61640;SDS011;62201;49.966;8.342;2023-07-08T14:30:17;8.75;;;4.45;;
61640;SDS011;62201;49.966;8.342;2023-07-08T14:32:42;6.80;;;3.90;;
61640;SDS011;62201;49.966;8.342;2023-07-08T14:35:24;7.78;;;4.22;;
61640;SDS011;62201;49.966;8.342;2023-07-08T14:37:51;10.02;;;4.30;;
61640;SDS011;62201;49.966;8.342;2023-07-08T14:40:19;6.57;;;3.90;;
61640;SDS011;62201;49.966;8.342;2023-07-08T14:42:48;9.05;;;3.72;;
61640;SDS011;62201;49.966;8.342;2023-07-08T14:45:17;10.02;;;3.97;;
61640;SDS011;62201;49.966;8.342;2023-07-08T14:47:43;5.10;;;3.72;;
61640;SDS011;62201;49.966;8.342;2023-07-08T14:50:15;5.43;;;3.55;;
61640;SDS011;62201;49.966;8.342;2023-07-08T14:52:41;8.88;;;4.13;;
61640;SDS011;62201;49.966;8.342;2023-07-08T14:55:07;5.95;;;3.85;;
61640;SDS011;62201;49.966;8.342;2023-07-08T14:57:38;7.43;;;4.25;;
61640;SDS011;62201;49.966;8.342;2023-07-08T15:00:10;17.35;;;4.47;;
61640;SDS011;62201;49.966;8.342;2023-07-08T15:02:41;8.02;;;3.78;;
61640;SDS011;62201;49.966;8.342;2023-07-08T15:05:11;8.93;;;4.40;;
61640;SDS011;62201;49.966;8.342;2023-07-08T15:07:40;9.07;;;3.72;;
61640;SDS011;62201;49.966;8.342;2023-07-08T15:10:06;8.50;;;4.47;;
61640;SDS011;62201;49.966;8.342;2023-07-08T15:12:32;12.60;;;4.25;;
61640;SDS011;62201;49.966;8.342;2023-07-08T15:14:58;10.02;;;4.00;;
61640;SDS011;62201;49.966;8.342;2023-07-08T15:17:23;9.60;;;4.15;;
61640;SDS011;62201;49.966;8.342;2023-07-08T15:19:49;9.27;;;3.83;;
61640;SDS011;62201;49.966;8.342;2023-07-08T15:22:16;9.68;;;3.95;;
61640;SDS011;62201;49.966;8.342;2023-07-08T15:24:41;8.95;;;4.10;;
61640;SDS011;62201;49.966;8.342;2023-07-08T15:27:17;12.45;;;4.50;;
61640;SDS011;62201;49.966;8.342;2023-07-08T15:29:45;9.27;;;4.72;;
61640;SDS011;62201;49.966;8.342;2023-07-08T15:32:13;11.13;;;4.47;;
61640;SDS011;62201;49.966;8.342;2023-07-08T15:34:40;15.88;;;4.20;;
61640;SDS011;62201;49.966;8.342;2023-07-08T15:37:06;9.20;;;4.03;;
61640;SDS011;62201;49.966;8.342;2023-07-08T15:39:31;10.30;;;4.38;;
61640;SDS011;62201;49.966;8.342;2023-07-08T15:41:57;18.45;;;4.43;;
61640;SDS011;62201;49.966;8.342;2023-07-08T15:44:23;12.88;;;4.20;;
61640;SDS011;62201;49.966;8.342;2023-07-08T15:46:48;13.02;;;4.15;;
61640;SDS011;62201;49.966;8.342;2023-07-08T15:49:19;12.05;;;4.60;;
61640;SDS011;62201;49.966;8.342;2023-07-08T15:51:47;13.13;;;4.38;;
61640;SDS011;62201;49.966;8.342;2023-07-08T15:54:13;14.48;;;4.50;;
61640;SDS011;62201;49.966;8.342;2023-07-08T15:56:39;7.25;;;4.25;;
61640;SDS011;62201;49.966;8.342;2023-07-08T15:59:07;19.48;;;4.53;;
61640;SDS011;62201;49.966;8.342;2023-07-08T16:01:38;8.80;;;4.20;;